createdAt,value
2023-10-29T00:01:48.710Z,99462.84
2023-10-29T00:04:53.114Z,99467.61
2023-10-29T00:07:57.160Z,99470.71
2023-10-29T00:11:01.135Z,99465.39
2023-10-29T00:14:05.480Z,99461.63
2023-10-29T00:17:09.481Z,99458.58
2023-10-29T00:20:13.589Z,99461.77
2023-10-29T00:23:17.875Z,99457.68
2023-10-29T00:26:21.903Z,99460.79
2023-10-29T00:29:26.764Z,99454.05
2023-10-29T00:32:34.321Z,99446.79
2023-10-29T00:35:38.386Z,99448.34
2023-10-29T00:38:42.789Z,99452.20
2023-10-29T00:41:46.840Z,99454.87
2023-10-29T00:44:51.051Z,99455.14
2023-10-29T00:47:55.675Z,99453.58
2023-10-29T00:51:00.225Z,99454.02
2023-10-29T00:54:05.542Z,99457.55
2023-10-29T00:57:09.601Z,99457.97
2023-10-29T01:00:19.070Z,99462.48
2023-10-29T01:03:23.833Z,99460.23
2023-10-29T01:06:29.186Z,99461.20
2023-10-29T01:09:34.996Z,99462.98
2023-10-29T01:12:39.589Z,99468.31
2023-10-29T01:15:43.472Z,99465.80
2023-10-29T01:18:47.812Z,99464.40
2023-10-29T01:21:51.891Z,99473.77
2023-10-29T01:24:55.943Z,99476.23
2023-10-29T01:28:01.228Z,99482.71
2023-10-29T01:31:06.525Z,99482.45
2023-10-29T01:34:10.491Z,99480.38
2023-10-29T01:37:14.484Z,99477.35
2023-10-29T01:40:18.586Z,99469.39
2023-10-29T01:43:22.692Z,99465.11
2023-10-29T01:46:26.948Z,99470.34
2023-10-29T01:49:31.155Z,99470.61
2023-10-29T01:52:38.359Z,99475.31
2023-10-29T01:55:42.367Z,99478.63
2023-10-29T01:58:46.368Z,99479.15
2023-10-29T02:01:51.592Z,99483.95
2023-10-29T02:04:55.674Z,99490.19
2023-10-29T02:08:00.382Z,99490.50
2023-10-29T02:11:04.402Z,99490.23
2023-10-29T02:14:09.088Z,99489.27
2023-10-29T02:17:14.443Z,99493.52
2023-10-29T02:20:18.638Z,99500.59
2023-10-29T02:23:22.812Z,99490.18
2023-10-29T02:26:26.976Z,99497.45
2023-10-29T02:29:31.416Z,99497.55
2023-10-29T02:32:35.442Z,99501.21
2023-10-29T02:35:39.653Z,99508.29
2023-10-29T02:38:44.569Z,99509.48
2023-10-29T02:41:50.776Z,99501.51
2023-10-29T02:44:55.807Z,99499.77
2023-10-29T02:47:59.886Z,99496.33
2023-10-29T02:51:04.545Z,99504.60
2023-10-29T02:54:08.469Z,99512.27
2023-10-29T02:57:14.747Z,99518.86
2023-10-29T03:00:18.991Z,99522.94
2023-10-29T03:03:23.072Z,99523.23
2023-10-29T03:06:27.332Z,99520.89
2023-10-29T03:09:31.427Z,99518.48
2023-10-29T03:12:35.433Z,99520.09
2023-10-29T03:15:39.413Z,99522.38
2023-10-29T03:18:43.412Z,99526.80
2023-10-29T03:21:49.221Z,99519.20
2023-10-29T03:24:53.271Z,99514.70
2023-10-29T03:27:57.968Z,99510.48
2023-10-29T03:31:03.442Z,99517.13
2023-10-29T03:34:09.242Z,99516.70
2023-10-29T03:37:13.304Z,99514.02
2023-10-29T03:40:17.410Z,99509.79
2023-10-29T03:43:21.357Z,99511.73
2023-10-29T03:46:25.339Z,99518.35
2023-10-29T03:49:29.441Z,99516.20
2023-10-29T03:52:33.401Z,99509.73
2023-10-29T03:55:38.181Z,99517.04
2023-10-29T03:58:42.248Z,99504.27
2023-10-29T04:01:46.579Z,99504.76
2023-10-29T04:05:05.586Z,99503.40
2023-10-29T04:08:13.419Z,99508.27
2023-10-29T04:11:17.377Z,99506.11
2023-10-29T04:14:21.610Z,99502.00
2023-10-29T04:17:25.930Z,99501.77
2023-10-29T04:20:30.131Z,99503.15
2023-10-29T04:23:34.652Z,99503.34
2023-10-29T04:26:38.806Z,99498.55
2023-10-29T04:29:42.977Z,99501.04
2023-10-29T04:32:47.068Z,99505.05
2023-10-29T04:35:51.447Z,99501.84
2023-10-29T04:38:55.565Z,99504.09
2023-10-29T04:42:00.107Z,99501.71
2023-10-29T04:45:05.236Z,99501.81
2023-10-29T04:48:09.803Z,99501.38
2023-10-29T04:51:13.938Z,99496.58
2023-10-29T04:54:17.878Z,99499.26
2023-10-29T04:57:22.744Z,99509.59
2023-10-29T05:00:27.013Z,99508.79
2023-10-29T05:03:31.136Z,99511.08
2023-10-29T05:06:35.664Z,99514.73
2023-10-29T05:09:39.775Z,99507.77
2023-10-29T05:12:43.815Z,99514.54
2023-10-29T05:15:47.761Z,99516.31
2023-10-29T05:18:51.807Z,99517.20
2023-10-29T05:21:55.990Z,99522.62
2023-10-29T05:25:00.110Z,99523.45
2023-10-29T05:28:04.396Z,99526.83
2023-10-29T05:31:08.443Z,99530.44
2023-10-29T05:34:12.672Z,99531.95
2023-10-29T05:37:16.667Z,99540.41
2023-10-29T05:40:20.745Z,99543.63
2023-10-29T05:43:24.784Z,99549.77
2023-10-29T05:46:28.865Z,99551.63
2023-10-29T05:49:32.901Z,99549.42
2023-10-29T05:52:37.097Z,99554.92
2023-10-29T05:55:41.688Z,99561.85
2023-10-29T05:58:45.797Z,99562.21
2023-10-29T06:01:49.817Z,99569.39
2023-10-29T06:04:53.903Z,99575.98
2023-10-29T06:07:58.329Z,99576.05
2023-10-29T06:11:04.800Z,99574.73
2023-10-29T06:14:09.566Z,99578.27
2023-10-29T06:17:25.633Z,99586.16
2023-10-29T06:20:31.128Z,99584.70
2023-10-29T06:23:38.380Z,99587.71
2023-10-29T06:26:42.593Z,99587.45
2023-10-29T06:29:46.700Z,99588.23
2023-10-29T06:32:51.222Z,99594.45
2023-10-29T06:35:59.023Z,99602.45
2023-10-29T06:39:03.523Z,99604.09
2023-10-29T06:42:07.898Z,99611.37
2023-10-29T06:45:12.085Z,99611.20
2023-10-29T06:48:16.194Z,99611.75
2023-10-29T06:51:22.208Z,99608.58
2023-10-29T06:54:26.475Z,99603.41
2023-10-29T06:57:30.840Z,99602.10
2023-10-29T07:00:34.845Z,99604.23
2023-10-29T07:03:39.530Z,99597.92
2023-10-29T07:06:44.323Z,99599.86
2023-10-29T07:09:48.560Z,99596.23
2023-10-29T07:12:54.421Z,99588.48
2023-10-29T07:16:01.014Z,99591.38
2023-10-29T07:19:05.758Z,99588.96
2023-10-29T07:22:09.864Z,99585.98
2023-10-29T07:25:13.933Z,99585.19
2023-10-29T07:28:19.044Z,99584.87
2023-10-29T07:31:23.036Z,99587.13
2023-10-29T07:34:27.238Z,99591.74
2023-10-29T07:37:31.262Z,99594.81
2023-10-29T07:40:37.461Z,99591.16
2023-10-29T07:43:41.478Z,99583.19
2023-10-29T07:46:45.458Z,99595.86
2023-10-29T07:49:49.479Z,99588.83
2023-10-29T07:52:53.534Z,99581.42
2023-10-29T07:56:11.904Z,99578.11
2023-10-29T07:59:16.150Z,99575.05
2023-10-29T08:02:20.159Z,99571.14
2023-10-29T08:05:24.298Z,99570.73
2023-10-29T08:08:28.335Z,99565.13
2023-10-29T08:11:32.431Z,99563.45
2023-10-29T08:14:36.474Z,99557.75
2023-10-29T08:17:41.256Z,99556.16
2023-10-29T08:20:45.574Z,99551.50
2023-10-29T08:23:50.070Z,99549.66
2023-10-29T08:26:54.145Z,99553.23
2023-10-29T08:29:58.534Z,99556.92
2023-10-29T08:33:02.871Z,99560.64
2023-10-29T08:36:07.965Z,99559.54
2023-10-29T08:39:12.056Z,99555.69
2023-10-29T08:42:16.017Z,99561.17
2023-10-29T08:45:31.009Z,99562.04
2023-10-29T08:48:42.470Z,99563.80
2023-10-29T08:51:46.780Z,99564.91
2023-10-29T08:54:51.874Z,99569.98
2023-10-29T08:57:55.867Z,99570.42
2023-10-29T09:01:00.032Z,99570.88
2023-10-29T09:04:05.485Z,99567.09
2023-10-29T09:07:09.757Z,99561.45
2023-10-29T09:10:13.958Z,99556.07
2023-10-29T09:13:20.398Z,99559.09
2023-10-29T09:16:24.413Z,99566.63
2023-10-29T09:19:29.074Z,99570.95
2023-10-29T09:22:33.928Z,99574.34
2023-10-29T09:25:37.997Z,99572.97
2023-10-29T09:28:43.576Z,99569.75
2023-10-29T09:31:47.791Z,99571.36
2023-10-29T09:34:52.949Z,99570.04
2023-10-29T09:37:56.906Z,99573.70
2023-10-29T09:41:01.109Z,99573.43
2023-10-29T09:44:11.734Z,99569.28
2023-10-29T09:47:20.428Z,99568.05
2023-10-29T09:50:25.032Z,99566.66
2023-10-29T09:53:30.298Z,99553.86
2023-10-29T09:56:35.274Z,99554.72
2023-10-29T09:59:39.317Z,99550.41
2023-10-29T10:02:58.198Z,99543.86
2023-10-29T10:06:03.947Z,99540.14
2023-10-29T10:09:08.797Z,99541.80
2023-10-29T10:12:15.695Z,99539.23
2023-10-29T10:15:21.049Z,99534.79
2023-10-29T10:18:25.147Z,99532.65
2023-10-29T10:21:43.481Z,99523.73
2023-10-29T10:24:49.696Z,99520.84
2023-10-29T10:27:57.799Z,99519.64
2023-10-29T10:31:14.837Z,99519.10
2023-10-29T10:34:20.387Z,99514.95
2023-10-29T10:37:26.326Z,99518.04
2023-10-29T10:40:32.610Z,99513.25
2023-10-29T10:43:37.679Z,99505.23
2023-10-29T10:46:52.753Z,99500.49
2023-10-29T10:49:57.747Z,99495.88
2023-10-29T10:53:02.791Z,99495.98
2023-10-29T10:56:09.805Z,99497.66
2023-10-29T10:59:14.332Z,99500.09
2023-10-29T11:02:19.955Z,99494.91
2023-10-29T11:05:31.437Z,99492.35
2023-10-29T11:08:36.861Z,99487.52
2023-10-29T11:11:48.149Z,99488.52
2023-10-29T11:15:17.515Z,99482.48
2023-10-29T11:18:33.809Z,99474.56
2023-10-29T11:21:43.252Z,99473.08
2023-10-29T11:25:06.163Z,99472.25
2023-10-29T11:28:28.300Z,99468.17
2023-10-29T11:31:32.353Z,99467.91
2023-10-29T11:34:36.505Z,99463.46
2023-10-29T11:37:40.704Z,99466.13
2023-10-29T11:40:44.643Z,99457.44
2023-10-29T11:44:20.759Z,99452.77
2023-10-29T11:47:25.006Z,99445.36
2023-10-29T11:50:29.002Z,99441.12
2023-10-29T11:53:33.941Z,99435.27
2023-10-29T11:56:39.573Z,99429.50
2023-10-29T11:59:57.273Z,99427.76
2023-10-29T12:03:01.728Z,99426.45
2023-10-29T12:06:06.204Z,99424.34
2023-10-29T12:09:26.008Z,99417.86
2023-10-29T12:12:30.069Z,99416.10
2023-10-29T12:15:34.537Z,99416.50
2023-10-29T12:18:40.624Z,99417.92
2023-10-29T12:21:53.029Z,99412.30
2023-10-29T12:25:04.169Z,99405.04
2023-10-29T12:28:12.098Z,99390.14
2023-10-29T12:31:37.157Z,99385.09
2023-10-29T12:34:52.200Z,99380.19
2023-10-29T12:37:57.174Z,99384.56
2023-10-29T12:41:06.784Z,99388.40
2023-10-29T12:44:17.311Z,99385.48
2023-10-29T12:47:23.111Z,99387.77
2023-10-29T12:50:27.346Z,99386.36
2023-10-29T12:53:32.769Z,99385.35
2023-10-29T12:56:50.464Z,99386.58
2023-10-29T12:59:54.562Z,99391.02
2023-10-29T13:02:58.843Z,99390.88
2023-10-29T13:06:03.198Z,99389.90
2023-10-29T13:09:09.816Z,99383.91
2023-10-29T13:12:13.934Z,99381.64
2023-10-29T13:15:19.736Z,99390.87
2023-10-29T13:18:23.981Z,99396.54
2023-10-29T13:21:28.138Z,99401.89
2023-10-29T13:24:33.767Z,99400.63
2023-10-29T13:27:38.881Z,99397.27
2023-10-29T13:30:43.300Z,99394.38
2023-10-29T13:33:49.271Z,99388.34
2023-10-29T13:36:53.227Z,99387.98
2023-10-29T13:39:57.207Z,99390.75
2023-10-29T13:43:01.488Z,99387.46
2023-10-29T13:46:06.590Z,99379.30
2023-10-29T13:49:11.670Z,99378.52
2023-10-29T13:52:15.999Z,99382.58
2023-10-29T13:55:24.420Z,99374.52
2023-10-29T13:58:28.361Z,99370.43
2023-10-29T14:01:32.885Z,99361.51
2023-10-29T14:04:36.876Z,99358.84
2023-10-29T14:07:40.789Z,99357.23
2023-10-29T14:10:44.793Z,99360.80
2023-10-29T14:13:51.255Z,99357.86
2023-10-29T14:16:55.256Z,99359.02
2023-10-29T14:19:59.290Z,99363.08
2023-10-29T14:23:05.276Z,99357.23
2023-10-29T14:26:09.268Z,99356.63
2023-10-29T14:29:14.101Z,99346.92
2023-10-29T14:32:18.044Z,99340.54
2023-10-29T14:35:22.283Z,99340.33
2023-10-29T14:38:28.451Z,99335.86
2023-10-29T14:41:32.615Z,99326.30
2023-10-29T14:44:37.285Z,99316.03
2023-10-29T14:47:41.336Z,99307.89
2023-10-29T14:50:45.682Z,99318.17
2023-10-29T14:53:49.791Z,99327.08
2023-10-29T14:56:53.862Z,99334.39
2023-10-29T14:59:58.279Z,99332.62
2023-10-29T15:03:02.580Z,99328.64
2023-10-29T15:06:11.078Z,99327.52
2023-10-29T15:09:16.088Z,99330.09
2023-10-29T15:12:20.576Z,99330.98
2023-10-29T15:15:29.718Z,99334.29
2023-10-29T15:18:34.737Z,99336.20
2023-10-29T15:21:38.897Z,99340.05
2023-10-29T15:24:42.975Z,99335.09
2023-10-29T15:27:47.001Z,99335.51
2023-10-29T15:30:51.248Z,99336.68
2023-10-29T15:33:56.151Z,99330.65
2023-10-29T15:37:00.161Z,99324.63
2023-10-29T15:40:05.292Z,99317.83
2023-10-29T15:43:09.322Z,99322.52
2023-10-29T15:46:13.773Z,99319.57
2023-10-29T15:49:17.755Z,99318.64
2023-10-29T15:52:22.097Z,99319.30
2023-10-29T15:55:26.121Z,99324.40
2023-10-29T15:58:30.451Z,99327.82
2023-10-29T16:01:36.043Z,99329.08
2023-10-29T16:04:40.211Z,99335.60
2023-10-29T16:07:44.426Z,99332.77
2023-10-29T16:10:48.460Z,99328.60
2023-10-29T16:13:52.556Z,99322.98
2023-10-29T16:16:57.016Z,99327.98
2023-10-29T16:20:01.175Z,99335.29
2023-10-29T16:23:05.412Z,99345.63
2023-10-29T16:26:10.900Z,99346.45
2023-10-29T16:29:16.112Z,99341.41
2023-10-29T16:32:20.874Z,99338.00
2023-10-29T16:35:25.474Z,99348.96
2023-10-29T16:38:31.169Z,99343.30
2023-10-29T16:41:35.850Z,99337.16
2023-10-29T16:44:40.576Z,99334.57
2023-10-29T16:47:45.140Z,99337.84
2023-10-29T16:51:02.747Z,99334.83
2023-10-29T16:54:08.211Z,99342.02
2023-10-29T16:57:13.809Z,99337.23
2023-10-29T17:00:19.015Z,99342.55
2023-10-29T17:03:23.720Z,99345.89
2023-10-29T17:06:29.349Z,99344.35
2023-10-29T17:09:34.136Z,99350.14
2023-10-29T17:12:39.502Z,99351.44
2023-10-29T17:15:44.303Z,99356.79
2023-10-29T17:18:49.304Z,99351.73
2023-10-29T17:21:54.065Z,99350.70
2023-10-29T17:24:58.834Z,99343.02
2023-10-29T17:28:03.858Z,99346.08
2023-10-29T17:31:13.048Z,99345.73
2023-10-29T17:34:18.578Z,99345.80
2023-10-29T17:37:23.195Z,99338.30
2023-10-29T17:40:27.942Z,99338.73
2023-10-29T17:43:32.708Z,99335.61
2023-10-29T17:46:37.169Z,99336.38
2023-10-29T17:49:41.973Z,99336.34
2023-10-29T17:52:46.638Z,99335.48
2023-10-29T17:55:53.072Z,99333.29
2023-10-29T17:58:58.084Z,99327.96
2023-10-29T18:02:02.698Z,99330.25
2023-10-29T18:05:10.319Z,99321.01
2023-10-29T18:08:14.762Z,99319.08
2023-10-29T18:11:19.501Z,99321.46
2023-10-29T18:14:25.460Z,99318.31
2023-10-29T18:17:29.764Z,99317.39
2023-10-29T18:20:35.300Z,99321.56
2023-10-29T18:23:40.061Z,99324.89
2023-10-29T18:26:44.943Z,99316.00
2023-10-29T18:29:50.317Z,99313.84
2023-10-29T18:32:56.862Z,99312.94
2023-10-29T18:36:11.807Z,99317.55
2023-10-29T18:39:16.272Z,99313.73
2023-10-29T18:42:21.235Z,99303.86
2023-10-29T18:45:26.024Z,99295.92
2023-10-29T18:48:30.761Z,99300.44
2023-10-29T18:51:35.689Z,99289.20
2023-10-29T18:54:40.493Z,99293.67
2023-10-29T18:57:45.136Z,99301.66
2023-10-29T19:00:51.489Z,99303.86
2023-10-29T19:03:59.334Z,99299.16
2023-10-29T19:07:04.801Z,99296.05
2023-10-29T19:10:09.804Z,99289.88
2023-10-29T19:13:14.613Z,99291.19
2023-10-29T19:16:19.295Z,99296.94
2023-10-29T19:19:24.029Z,99305.02
2023-10-29T19:22:29.520Z,99311.70
2023-10-29T19:25:36.517Z,99316.70
2023-10-29T19:28:41.314Z,99319.56
2023-10-29T19:31:46.069Z,99327.93
2023-10-29T19:34:52.250Z,99329.19
2023-10-29T19:37:56.913Z,99337.23
2023-10-29T19:41:01.897Z,99340.48
2023-10-29T19:44:07.109Z,99349.92
2023-10-29T19:47:11.932Z,99344.38
2023-10-29T19:50:17.233Z,99345.70
2023-10-29T19:53:22.216Z,99356.77
2023-10-29T19:56:28.032Z,99360.09
2023-10-29T19:59:32.998Z,99362.31
2023-10-29T20:02:37.673Z,99359.87
2023-10-29T20:05:42.447Z,99361.43
2023-10-29T20:08:48.483Z,99359.58
2023-10-29T20:11:53.196Z,99363.17
2023-10-29T20:14:57.773Z,99360.31
2023-10-29T20:18:03.359Z,99358.90
2023-10-29T20:21:19.061Z,99361.24
2023-10-29T20:24:25.029Z,99357.28
2023-10-29T20:27:29.412Z,99353.50
2023-10-29T20:30:33.863Z,99354.27
2023-10-29T20:33:39.173Z,99348.02
2023-10-29T20:36:43.936Z,99344.90
2023-10-29T20:39:48.212Z,99335.77
2023-10-29T20:42:52.909Z,99333.16
2023-10-29T20:45:57.504Z,99323.93
2023-10-29T20:49:01.640Z,99319.61
2023-10-29T20:52:06.137Z,99319.59
2023-10-29T20:55:10.555Z,99318.48
2023-10-29T20:58:15.047Z,99327.38
2023-10-29T21:01:19.097Z,99326.09
2023-10-29T21:04:23.239Z,99321.70
2023-10-29T21:07:27.281Z,99320.95
2023-10-29T21:10:32.239Z,99311.67
2023-10-29T21:13:36.353Z,99304.34
2023-10-29T21:16:40.339Z,99307.86
2023-10-29T21:19:44.584Z,99310.65
2023-10-29T21:22:48.527Z,99311.85
2023-10-29T21:25:56.710Z,99311.85
2023-10-29T21:29:01.035Z,99312.88
2023-10-29T21:32:05.137Z,99311.49
2023-10-29T21:35:09.168Z,99315.41
2023-10-29T21:38:13.213Z,99318.77
2023-10-29T21:41:17.239Z,99324.71
2023-10-29T21:44:21.728Z,99320.69
2023-10-29T21:47:26.161Z,99313.67
2023-10-29T21:50:30.169Z,99317.03
2023-10-29T21:53:35.298Z,99321.42
2023-10-29T21:56:39.305Z,99324.33
2023-10-29T21:59:43.318Z,99334.43
2023-10-29T22:02:47.402Z,99337.39
2023-10-29T22:06:05.150Z,99338.30
2023-10-29T22:09:09.846Z,99343.14
2023-10-29T22:12:13.864Z,99340.59
2023-10-29T22:15:18.980Z,99342.60
2023-10-29T22:18:23.067Z,99347.54
2023-10-29T22:21:27.129Z,99341.80
2023-10-29T22:24:31.164Z,99349.08
2023-10-29T22:27:35.412Z,99341.30
2023-10-29T22:30:39.630Z,99343.65
2023-10-29T22:33:44.798Z,99348.01
2023-10-29T22:36:48.738Z,99346.31
2023-10-29T22:39:52.756Z,99342.33
2023-10-29T22:42:56.852Z,99339.96
2023-10-29T22:46:02.010Z,99346.57
2023-10-29T22:49:06.209Z,99340.88
2023-10-29T22:52:10.198Z,99344.08
2023-10-29T22:55:16.732Z,99349.80
2023-10-29T22:58:20.714Z,99355.64
2023-10-29T23:01:27.903Z,99358.34
2023-10-29T23:04:32.049Z,99364.65
2023-10-29T23:07:36.289Z,99363.90
2023-10-29T23:10:40.518Z,99360.00
2023-10-29T23:13:45.200Z,99362.05
2023-10-29T23:16:49.264Z,99359.34
2023-10-29T23:19:53.771Z,99351.98
2023-10-29T23:22:57.791Z,99344.08
2023-10-29T23:26:02.303Z,99343.20
2023-10-29T23:29:06.557Z,99340.76
2023-10-29T23:32:10.646Z,99335.84
2023-10-29T23:35:15.002Z,99334.83
2023-10-29T23:38:19.729Z,99341.80
2023-10-29T23:41:23.692Z,99345.67
2023-10-29T23:44:27.697Z,99340.38
2023-10-29T23:47:32.197Z,99340.84
2023-10-29T23:50:36.207Z,99348.64
2023-10-29T23:53:40.388Z,99347.95
2023-10-29T23:56:44.443Z,99337.60
2023-10-29T23:59:48.588Z,99332.34
